Time;durP1;ratioP1;P1;durP2;ratioP2;P2;SDS_P1;SDS_P2;PMS_P1;PMS_P2;Temp;Humidity;BMP_temperature;BMP_pressure;BME280_temperature;BME280_humidity;BME280_pressure;Samples;Min_cycle;Max_cycle;Signal;HPM_P1;HPM_P2
2022/01/08 00:00:30;;;;;;;4.72;4.43;;;0.90;99.90;;;;;;5023460;28;20224;-75
2022/01/08 00:02:57;;;;;;;4.53;4.22;;;0.90;99.90;;;;;;5010156;28;20204;-75
2022/01/08 00:05:24;;;;;;;4.72;4.43;;;0.80;99.90;;;;;;5007837;28;20274;-75
2022/01/08 00:07:52;;;;;;;4.85;4.55;;;0.80;99.90;;;;;;5012287;28;20211;-74
2022/01/08 00:10:19;;;;;;;3.92;3.72;;;0.80;99.90;;;;;;5008442;28;20359;-74
2022/01/08 00:12:46;;;;;;;3.90;3.70;;;0.80;99.90;;;;;;5028851;28;20241;-74
2022/01/08 00:15:13;;;;;;;4.47;4.18;;;0.70;99.90;;;;;;5026963;28;20228;-75
2022/01/08 00:17:41;;;;;;;4.32;4.13;;;0.70;99.90;;;;;;5026756;28;20210;-74
2022/01/08 00:20:10;;;;;;;4.40;4.15;;;0.70;99.90;;;;;;5023190;28;20294;-74
2022/01/08 00:22:37;;;;;;;4.25;3.95;;;0.70;99.90;;;;;;5006364;28;20196;-75
2022/01/08 00:25:05;;;;;;;4.97;4.35;;;0.70;99.90;;;;;;5009812;28;20251;-75
2022/01/08 00:27:32;;;;;;;4.10;3.88;;;0.60;99.90;;;;;;5004883;28;20221;-76
2022/01/08 00:30:00;;;;;;;3.90;3.70;;;0.60;99.90;;;;;;5010170;28;20196;-74
2022/01/08 00:32:27;;;;;;;5.00;4.60;;;0.60;99.90;;;;;;5011419;28;21629;-75
2022/01/08 00:34:55;;;;;;;4.10;3.85;;;0.60;99.90;;;;;;5008789;28;20216;-74
2022/01/08 00:37:22;;;;;;;4.30;4.00;;;0.60;99.90;;;;;;5004070;28;20197;-74
2022/01/08 00:39:49;;;;;;;4.20;3.90;;;0.50;99.90;;;;;;5011064;28;20204;-75
2022/01/08 00:42:16;;;;;;;4.75;4.32;;;0.50;99.90;;;;;;5011732;28;20424;-74
2022/01/08 00:44:44;;;;;;;5.30;4.55;;;0.50;99.90;;;;;;5010862;28;20220;-74
2022/01/08 00:47:11;;;;;;;4.50;4.18;;;0.40;99.90;;;;;;5008462;28;20341;-76
2022/01/08 00:49:38;;;;;;;5.43;4.95;;;0.50;99.90;;;;;;5009811;28;20246;-75
2022/01/08 00:52:07;;;;;;;4.93;4.53;;;0.50;99.90;;;;;;5003067;28;20311;-74
2022/01/08 00:54:35;;;;;;;5.07;4.63;;;0.50;99.90;;;;;;5030546;28;20668;-75
2022/01/08 00:57:03;;;;;;;5.03;4.63;;;0.50;99.90;;;;;;5011437;28;20752;-74
2022/01/08 00:59:30;;;;;;;5.20;4.80;;;0.40;99.90;;;;;;5016422;28;20200;-75
2022/01/08 01:01:57;;;;;;;4.57;4.28;;;0.40;99.90;;;;;;5016008;28;20228;-75
2022/01/08 01:04:24;;;;;;;4.28;3.97;;;0.40;99.90;;;;;;5011145;28;20220;-75
2022/01/08 01:06:51;;;;;;;4.75;4.43;;;0.40;99.90;;;;;;5009679;28;20636;-74
2022/01/08 01:09:20;;;;;;;4.63;4.32;;;0.40;99.90;;;;;;5010179;28;20611;-76
2022/01/08 01:11:47;;;;;;;4.05;3.85;;;0.40;99.90;;;;;;5008505;28;20267;-75
2022/01/08 01:14:14;;;;;;;3.65;3.45;;;0.40;99.90;;;;;;5009647;28;20216;-74
2022/01/08 01:16:41;;;;;;;4.93;4.63;;;0.30;99.90;;;;;;5013207;28;20239;-75
2022/01/08 01:19:08;;;;;;;4.57;4.28;;;0.30;99.90;;;;;;5010373;28;20204;-75
2022/01/08 01:21:35;;;;;;;4.32;4.03;;;0.30;99.90;;;;;;5007559;28;20251;-74
2022/01/08 01:24:09;;;;;;;4.47;4.18;;;0.30;99.90;;;;;;5012492;28;20624;-74
2022/01/08 01:26:43;;;;;;;4.35;4.05;;;0.30;99.90;;;;;;5008239;28;20601;-74
2022/01/08 01:29:27;;;;;;;4.30;4.00;;;0.30;99.90;;;;;;5009910;28;20220;-74
2022/01/08 01:43:20;;;;;;;4.05;3.85;;;0.20;99.90;;;;;;5012670;28;20291;-74
2022/01/08 01:48:32;;;;;;;4.15;3.92;;;0.10;99.90;;;;;;5016092;28;20295;-73
2022/01/08 01:50:59;;;;;;;4.28;3.97;;;0.10;99.90;;;;;;5005499;28;20745;-75
2022/01/08 01:53:26;;;;;;;3.15;2.95;;;0.10;99.90;;;;;;5028425;28;20180;-75
2022/01/08 01:55:53;;;;;;;4.75;4.45;;;0.00;99.90;;;;;;5016537;28;20228;-73
2022/01/08 01:58:22;;;;;;;4.95;4.60;;;0.00;99.90;;;;;;5006471;28;20201;-74
2022/01/08 02:00:51;;;;;;;3.92;3.72;;;0.00;99.90;;;;;;5007908;28;20310;-73
2022/01/08 02:03:18;;;;;;;3.90;3.70;;;0.00;99.90;;;;;;5007512;28;20663;-74
2022/01/08 02:05:46;;;;;;;4.38;4.18;;;0.00;99.90;;;;;;5011844;28;20235;-74
2022/01/08 02:08:14;;;;;;;4.50;4.20;;;0.00;99.90;;;;;;5011522;28;20714;-74
2022/01/08 02:10:41;;;;;;;4.20;3.90;;;0.00;99.90;;;;;;5003515;28;20228;-74
2022/01/08 02:13:08;;;;;;;4.13;3.83;;;0.00;99.90;;;;;;5012978;28;20249;-74
2022/01/08 02:15:37;;;;;;;4.47;4.07;;;0.00;99.90;;;;;;5007669;28;20258;-74
2022/01/08 02:18:05;;;;;;;4.45;4.15;;;-0.10;99.90;;;;;;5009923;28;20235;-74
2022/01/08 02:20:33;;;;;;;4.60;4.30;;;0.00;99.90;;;;;;5009743;28;20224;-73
2022/01/08 02:23:01;;;;;;;4.75;4.45;;;-0.10;99.90;;;;;;5012763;28;20199;-74
2022/01/08 02:25:28;;;;;;;5.07;4.68;;;-0.10;99.90;;;;;;5007218;28;20231;-74
2022/01/08 02:27:55;;;;;;;3.88;3.67;;;-0.20;99.90;;;;;;5012906;28;20212;-75
2022/01/08 02:30:22;;;;;;;4.53;4.20;;;-0.20;99.90;;;;;;5015021;28;20574;-73
2022/01/08 02:32:49;;;;;;;4.00;3.72;;;-0.20;99.90;;;;;;5010282;28;20667;-74
2022/01/08 02:35:21;;;;;;;4.10;3.90;;;-0.20;99.90;;;;;;5003131;28;20587;-74
2022/01/08 02:37:49;;;;;;;4.60;4.30;;;-0.30;99.90;;;;;;5009706;28;20212;-73
2022/01/08 02:40:18;;;;;;;3.95;3.75;;;-0.30;99.90;;;;;;5004550;28;20250;-74
2022/01/08 02:42:52;;;;;;;4.25;3.95;;;-0.30;99.90;;;;;;5019979;28;20275;-75
2022/01/08 02:45:20;;;;;;;4.60;4.30;;;-0.30;99.90;;;;;;5004562;28;20224;-74
2022/01/08 02:47:47;;;;;;;4.45;4.05;;;-0.30;99.90;;;;;;5006358;28;20217;-73
2022/01/08 02:50:16;;;;;;;4.40;4.05;;;-0.30;99.90;;;;;;5004983;28;20641;-74
2022/01/08 02:52:45;;;;;;;4.43;4.03;;;-0.30;99.90;;;;;;5004109;28;20203;-75
2022/01/08 02:55:15;;;;;;;4.47;4.18;;;-0.30;99.90;;;;;;5007191;28;20513;-75
2022/01/08 02:57:42;;;;;;;4.30;4.07;;;-0.30;99.90;;;;;;5008327;28;20248;-74
2022/01/08 03:00:12;;;;;;;4.25;4.05;;;-0.30;99.90;;;;;;5008983;28;20679;-74
2022/01/08 03:02:43;;;;;;;4.70;4.40;;;-0.40;99.90;;;;;;5008552;28;20256;-74
2022/01/08 03:05:11;;;;;;;4.60;4.30;;;-0.40;99.90;;;;;;5010196;28;20224;-74
2022/01/08 03:07:38;;;;;;;5.20;4.90;;;-0.40;99.90;;;;;;5009451;28;20315;-74
2022/01/08 03:10:06;;;;;;;4.45;4.25;;;-0.40;99.90;;;;;;5003489;28;20238;-75
2022/01/08 03:12:38;;;;;;;4.60;4.30;;;-0.40;99.90;;;;;;5008582;28;20650;-74
2022/01/08 03:15:06;;;;;;;3.92;3.72;;;-0.40;99.90;;;;;;5009045;28;20674;-74
2022/01/08 03:17:33;;;;;;;4.40;4.03;;;-0.50;99.90;;;;;;5006509;28;20220;-74
2022/01/08 03:20:05;;;;;;;4.45;4.15;;;-0.50;99.90;;;;;;5002148;28;20220;-74
2022/01/08 03:22:32;;;;;;;3.75;3.55;;;-0.50;99.90;;;;;;5007084;28;20266;-75
2022/01/08 03:25:00;;;;;;;4.18;3.88;;;-0.50;99.90;;;;;;5009961;28;20224;-74
2022/01/08 03:27:27;;;;;;;3.60;3.40;;;-0.60;99.90;;;;;;5003985;28;20278;-74
2022/01/08 03:29:56;;;;;;;4.72;4.43;;;-0.60;99.90;;;;;;5005483;28;20207;-74
2022/01/08 03:32:23;;;;;;;4.07;3.88;;;-0.60;99.90;;;;;;5007607;28;20289;-75
2022/01/08 03:34:50;;;;;;;4.70;3.72;;;-0.60;99.90;;;;;;5008746;28;20286;-74
2022/01/08 03:37:18;;;;;;;4.13;3.83;;;-0.60;99.90;;;;;;5024910;28;20290;-74
2022/01/08 03:39:45;;;;;;;4.43;4.13;;;-0.60;99.90;;;;;;5009322;28;20196;-75
2022/01/08 03:42:12;;;;;;;4.13;3.92;;;-0.70;99.90;;;;;;5013471;28;20929;-74
2022/01/08 03:44:39;;;;;;;4.50;4.20;;;-0.70;99.90;;;;;;5011390;28;20258;-74
2022/01/08 03:47:30;;;;;;;4.18;3.88;;;-0.80;99.90;;;;;;5008002;28;20232;-75
2022/01/08 03:49:59;;;;;;;4.90;4.55;;;-0.80;99.90;;;;;;5004278;28;20196;-73
2022/01/08 03:52:26;;;;;;;4.13;3.90;;;-0.90;99.90;;;;;;5007922;28;20223;-74
2022/01/08 03:54:53;;;;;;;4.13;3.85;;;-0.90;99.90;;;;;;5011363;28;20282;-74
2022/01/08 03:57:20;;;;;;;4.53;4.22;;;-0.90;99.90;;;;;;5007696;28;20212;-73
2022/01/08 03:59:48;;;;;;;4.35;4.00;;;-0.80;99.90;;;;;;5012584;28;20413;-74
2022/01/08 04:02:17;;;;;;;4.30;4.10;;;-0.80;99.90;;;;;;5008308;28;20212;-74
2022/01/08 04:04:44;;;;;;;4.65;4.38;;;-0.80;99.90;;;;;;5009293;28;20757;-74
2022/01/08 04:07:11;;;;;;;4.68;4.28;;;-0.80;99.90;;;;;;5005851;28;20236;-74
2022/01/08 04:09:38;;;;;;;4.13;3.90;;;-0.90;99.90;;;;;;5012138;28;20208;-74
2022/01/08 04:12:07;;;;;;;4.38;4.15;;;-0.80;99.90;;;;;;5010935;28;20658;-74
2022/01/08 04:14:48;;;;;;;4.60;4.30;;;-0.80;99.90;;;;;;5007919;28;20356;-74
2022/01/08 04:17:16;;;;;;;4.43;4.03;;;-0.80;99.90;;;;;;5012002;28;20262;-74
2022/01/08 04:19:44;;;;;;;4.07;3.88;;;-0.80;99.90;;;;;;5008545;28;20620;-74
2022/01/08 04:22:12;;;;;;;3.92;3.72;;;-0.90;99.90;;;;;;5010172;28;20212;-74
2022/01/08 04:24:40;;;;;;;4.47;4.18;;;-0.90;99.90;;;;;;5008037;28;20595;-75
2022/01/08 04:27:08;;;;;;;3.95;3.65;;;-0.90;99.90;;;;;;5012754;28;20273;-73
2022/01/08 04:29:35;;;;;;;4.60;4.35;;;-0.90;99.90;;;;;;5028329;28;20188;-77
2022/01/08 04:32:02;;;;;;;3.85;3.65;;;-0.90;99.90;;;;;;5031748;28;20239;-77
2022/01/08 04:34:30;;;;;;;4.22;4.03;;;-0.90;99.90;;;;;;5013307;28;20212;-75
2022/01/08 04:36:57;;;;;;;3.97;3.75;;;-1.00;99.90;;;;;;5012597;28;20222;-74
2022/01/08 04:39:24;;;;;;;4.22;4.03;;;-1.00;99.90;;;;;;5014999;28;20203;-75
2022/01/08 04:41:51;;;;;;;4.68;4.38;;;-1.00;99.90;;;;;;5012509;28;20224;-75
2022/01/08 04:44:19;;;;;;;4.75;4.45;;;-1.00;99.90;;;;;;5012923;28;20714;-76
2022/01/08 04:46:46;;;;;;;4.45;4.15;;;-1.00;99.90;;;;;;5012647;28;20223;-75
2022/01/08 04:49:13;;;;;;;4.85;4.55;;;-1.00;99.90;;;;;;5011225;28;20647;-75
2022/01/08 04:51:41;;;;;;;4.30;4.00;;;-1.00;99.90;;;;;;5010788;28;20220;-75
2022/01/08 04:54:08;;;;;;;4.35;4.05;;;-1.00;99.90;;;;;;5014472;28;20671;-74
2022/01/08 04:56:35;;;;;;;4.55;4.25;;;-1.00;99.90;;;;;;5010396;28;20212;-75
2022/01/08 04:59:02;;;;;;;4.40;4.20;;;-1.00;99.90;;;;;;5013509;28;20196;-75
2022/01/08 05:01:29;;;;;;;4.10;3.90;;;-1.00;99.90;;;;;;5009801;28;20224;-75
2022/01/08 05:03:56;;;;;;;4.45;4.15;;;-1.10;99.90;;;;;;5010754;28;20223;-74
2022/01/08 05:06:23;;;;;;;4.50;4.15;;;-1.10;99.90;;;;;;5009970;28;20269;-74
2022/01/08 05:08:52;;;;;;;4.38;4.07;;;-1.10;99.90;;;;;;5014761;28;20642;-74
2022/01/08 05:11:19;;;;;;;3.90;3.70;;;-1.10;99.90;;;;;;5010396;28;20251;-75
2022/01/08 05:13:46;;;;;;;4.65;4.35;;;-1.10;99.90;;;;;;5014270;28;20196;-75
2022/01/08 05:16:13;;;;;;;4.25;4.05;;;-1.10;99.90;;;;;;5011797;28;20593;-73
2022/01/08 05:18:40;;;;;;;4.20;4.00;;;-1.10;99.90;;;;;;5010296;28;20266;-76
2022/01/08 05:21:18;;;;;;;4.60;4.40;;;-1.10;99.90;;;;;;5010511;28;20757;-73
2022/01/08 05:23:45;;;;;;;4.25;4.05;;;-1.10;99.90;;;;;;5013597;28;20196;-74
2022/01/08 05:26:14;;;;;;;4.57;4.30;;;-1.10;99.90;;;;;;5025020;28;20224;-75
2022/01/08 05:28:42;;;;;;;4.63;4.32;;;-1.10;99.90;;;;;;5006024;28;20589;-74
2022/01/08 05:31:09;;;;;;;4.80;4.40;;;-1.10;99.90;;;;;;5011823;28;20223;-75
2022/01/08 05:33:36;;;;;;;4.50;4.20;;;-1.10;99.90;;;;;;5014418;28;20208;-75
2022/01/08 05:36:04;;;;;;;4.40;4.10;;;-1.10;99.90;;;;;;5012358;28;20219;-75
2022/01/08 05:38:31;;;;;;;4.22;4.03;;;-1.20;99.90;;;;;;5005824;28;20205;-77
2022/01/08 05:40:58;;;;;;;4.15;3.83;;;-1.20;99.90;;;;;;5011488;28;20201;-74
2022/01/08 05:43:26;;;;;;;4.20;3.90;;;-1.20;99.90;;;;;;5009551;28;20738;-74
2022/01/08 05:45:53;;;;;;;5.18;4.60;;;-1.20;99.90;;;;;;5010109;28;20573;-74
2022/01/08 05:48:21;;;;;;;4.75;4.43;;;-1.30;99.90;;;;;;5007573;28;20255;-74
2022/01/08 05:50:49;;;;;;;4.00;3.70;;;-1.30;99.90;;;;;;5008314;28;20567;-74
2022/01/08 05:53:16;;;;;;;3.80;3.58;;;-1.30;99.90;;;;;;5010082;28;20722;-75
2022/01/08 05:55:44;;;;;;;4.50;4.20;;;-1.30;99.90;;;;;;5007728;28;20228;-73
2022/01/08 05:58:11;;;;;;;4.72;4.43;;;-1.30;99.90;;;;;;5046937;22;20226;-78
2022/01/08 06:00:39;;;;;;;4.38;4.15;;;-1.30;99.90;;;;;;5044321;28;20716;-79
2022/01/08 06:03:06;;;;;;;4.65;4.35;;;-1.30;99.90;;;;;;5062754;28;20218;-79
2022/01/08 06:05:33;;;;;;;4.32;4.13;;;-1.40;99.90;;;;;;5065641;28;20194;-78
2022/01/08 06:08:00;;;;;;;4.40;4.13;;;-1.40;99.90;;;;;;5064667;28;20226;-79
2022/01/08 06:10:27;;;;;;;5.18;4.78;;;-1.40;99.90;;;;;;5069537;28;20611;-78
2022/01/08 06:12:54;;;;;;;4.25;4.05;;;-1.40;99.90;;;;;;5063952;28;20249;-79
2022/01/08 06:15:21;;;;;;;4.70;4.40;;;-1.40;99.90;;;;;;5060744;28;20578;-79
2022/01/08 06:17:50;;;;;;;4.68;4.28;;;-1.40;99.90;;;;;;5055823;28;20222;-79
2022/01/08 06:20:17;;;;;;;5.25;4.85;;;-1.40;99.90;;;;;;5052676;28;20199;-79
2022/01/08 06:22:44;;;;;;;4.10;3.90;;;-1.40;99.90;;;;;;5077169;28;20373;-76
2022/01/08 06:25:11;;;;;;;5.00;4.60;;;-1.40;99.90;;;;;;5090812;28;20245;-78
2022/01/08 06:27:38;;;;;;;4.50;4.20;;;-1.40;99.90;;;;;;5084785;28;20229;-78
2022/01/08 06:30:07;;;;;;;5.35;4.88;;;-1.40;99.90;;;;;;5088436;28;20263;-78
2022/01/08 06:32:34;;;;;;;5.03;4.63;;;-1.40;99.90;;;;;;5086279;28;20753;-76
2022/01/08 06:35:02;;;;;;;4.95;4.65;;;-1.40;99.90;;;;;;5088068;28;20193;-78
2022/01/08 06:37:29;;;;;;;5.53;5.13;;;-1.50;99.90;;;;;;5085756;28;20225;-78
2022/01/08 06:39:56;;;;;;;5.85;5.45;;;-1.50;99.90;;;;;;5082316;28;20198;-78
2022/01/08 06:42:23;;;;;;;5.15;4.85;;;-1.50;99.90;;;;;;5084739;28;20225;-78
2022/01/08 06:44:51;;;;;;;5.30;4.90;;;-1.50;99.90;;;;;;5081057;28;20227;-78
2022/01/08 06:47:17;;;;;;;4.55;4.22;;;-1.50;99.90;;;;;;5084352;28;20321;-77
2022/01/08 06:49:45;;;;;;;5.00;4.70;;;-1.50;99.90;;;;;;5087460;28;20274;-76
2022/01/08 06:52:13;;;;;;;5.25;4.85;;;-1.50;99.90;;;;;;5082236;28;20228;-77
2022/01/08 06:54:40;;;;;;;5.38;4.97;;;-1.50;99.90;;;;;;5087983;28;20196;-78
2022/01/08 06:57:07;;;;;;;5.07;4.68;;;-1.50;99.90;;;;;;5084739;28;20221;-76
2022/01/08 06:59:34;;;;;;;5.07;4.78;;;-1.60;99.90;;;;;;5089437;28;20196;-77
2022/01/08 07:02:01;;;;;;;5.57;5.18;;;-1.60;99.90;;;;;;5082167;28;20217;-77
2022/01/08 07:04:28;;;;;;;5.25;4.95;;;-1.60;99.90;;;;;;5085587;28;20194;-78
2022/01/08 07:06:55;;;;;;;4.95;4.55;;;-1.60;99.90;;;;;;5085958;28;20213;-77
2022/01/08 07:09:24;;;;;;;4.45;4.13;;;-1.60;99.90;;;;;;5088419;28;20565;-77
2022/01/08 07:11:51;;;;;;;5.03;4.63;;;-1.50;99.90;;;;;;5087968;28;20956;-80
2022/01/08 07:14:18;;;;;;;4.82;4.40;;;-1.50;99.90;;;;;;5089186;28;20615;-78
2022/01/08 07:16:47;;;;;;;4.65;4.35;;;-1.50;99.90;;;;;;5087479;28;20221;-77
2022/01/08 07:19:14;;;;;;;5.82;5.43;;;-1.40;99.90;;;;;;5082731;28;20220;-77
2022/01/08 07:21:41;;;;;;;5.68;5.20;;;-1.40;99.90;;;;;;5085430;28;20221;-77
2022/01/08 07:24:08;;;;;;;5.10;4.80;;;-1.50;99.90;;;;;;5088686;28;20648;-76
2022/01/08 07:26:36;;;;;;;5.13;4.82;;;-1.50;99.90;;;;;;5086495;28;20233;-76
2022/01/08 07:29:03;;;;;;;5.40;4.93;;;-1.50;99.90;;;;;;5088348;28;20213;-77
2022/01/08 07:31:30;;;;;;;5.47;5.07;;;-1.50;99.90;;;;;;5089776;28;20571;-79
2022/01/08 07:33:57;;;;;;;5.30;4.80;;;-1.40;99.90;;;;;;5092701;28;20883;-78
2022/01/08 07:36:24;;;;;;;4.95;4.65;;;-1.40;99.90;;;;;;5090886;28;20197;-79
2022/01/08 07:38:51;;;;;;;4.95;4.65;;;-1.30;99.90;;;;;;5085988;28;20248;-78
2022/01/08 07:41:19;;;;;;;4.70;4.40;;;-1.30;99.90;;;;;;5092621;28;20194;-78
2022/01/08 07:43:47;;;;;;;4.95;4.65;;;-1.20;99.90;;;;;;5089459;28;20217;-79
2022/01/08 07:46:14;;;;;;;5.05;4.60;;;-1.10;99.90;;;;;;5081630;28;20202;-79
2022/01/08 07:48:43;;;;;;;5.00;4.60;;;-1.00;99.90;;;;;;5085999;28;20217;-79
2022/01/08 07:51:10;;;;;;;5.50;5.20;;;-1.00;99.90;;;;;;5087940;28;20243;-78
2022/01/08 07:53:37;;;;;;;4.75;4.45;;;-0.80;99.90;;;;;;5088397;28;20221;-79
2022/01/08 07:56:05;;;;;;;4.68;4.22;;;-0.70;99.90;;;;;;5090981;28;20625;-79
2022/01/08 07:58:32;;;;;;;3.78;3.53;;;-0.60;99.90;;;;;;5088816;28;20217;-79
2022/01/08 08:01:01;;;;;;;4.32;3.97;;;-0.60;99.90;;;;;;5090027;28;20194;-78
2022/01/08 08:03:28;;;;;;;4.72;4.32;;;-0.50;99.90;;;;;;5089893;28;20225;-80
2022/01/08 08:05:55;;;;;;;4.47;4.18;;;-0.40;99.90;;;;;;5092689;28;20201;-78
2022/01/08 08:08:22;;;;;;;4.65;4.25;;;-0.30;99.90;;;;;;5087232;28;20705;-79
2022/01/08 08:10:51;;;;;;;5.22;4.82;;;-0.20;99.90;;;;;;5088767;28;20201;-80
2022/01/08 08:13:18;;;;;;;5.80;5.40;;;-0.10;99.90;;;;;;5085525;28;20645;-77
2022/01/08 08:15:46;;;;;;;5.93;5.40;;;-0.10;99.90;;;;;;5085708;28;20197;-78
2022/01/08 08:18:14;;;;;;;6.25;5.75;;;0.10;99.90;;;;;;5085674;28;20278;-77
2022/01/08 08:20:42;;;;;;;8.38;7.63;;;0.20;99.90;;;;;;5086448;28;20197;-79
2022/01/08 08:23:09;;;;;;;9.77;8.88;;;0.30;99.90;;;;;;5089603;28;20221;-77
2022/01/08 08:25:36;;;;;;;8.68;7.82;;;0.30;99.90;;;;;;5088129;28;20190;-79
2022/01/08 08:28:04;;;;;;;12.23;10.77;;;0.30;99.90;;;;;;5083892;28;20217;-79
2022/01/08 08:30:33;;;;;;;11.50;10.27;;;0.30;99.90;;;;;;5088962;28;20216;-75
2022/01/08 08:33:00;;;;;;;12.82;11.02;;;0.30;99.90;;;;;;5086632;28;20248;-77
2022/01/08 08:35:28;;;;;;;9.43;8.25;;;0.40;99.90;;;;;;5086538;28;20817;-77
2022/01/08 08:37:56;;;;;;;8.32;7.57;;;0.30;99.90;;;;;;5085302;28;20221;-77
2022/01/08 08:40:23;;;;;;;7.63;6.93;;;0.30;99.90;;;;;;5089474;28;20194;-79
2022/01/08 08:42:50;;;;;;;7.22;6.63;;;0.40;99.90;;;;;;5084799;28;20221;-77
2022/01/08 08:45:19;;;;;;;8.05;7.05;;;1.40;99.90;;;;;;5086034;28;20270;-78
2022/01/08 08:47:46;;;;;;;6.13;5.63;;;2.30;99.90;;;;;;5085590;28;20229;-79
2022/01/08 08:50:16;;;;;;;6.35;5.85;;;3.00;99.90;;;;;;5087426;28;20214;-79
2022/01/08 08:52:44;;;;;;;7.15;5.88;;;3.80;99.90;;;;;;5085778;28;20282;-77
2022/01/08 08:55:13;;;;;;;6.53;5.68;;;4.50;99.90;;;;;;5084889;28;20194;-79
2022/01/08 08:57:40;;;;;;;6.82;6.22;;;4.50;99.90;;;;;;5087745;28;20213;-77
2022/01/08 09:00:09;;;;;;;7.03;6.32;;;4.10;99.90;;;;;;5089142;28;20705;-76
2022/01/08 09:02:36;;;;;;;6.15;5.65;;;4.00;99.90;;;;;;5088207;28;20300;-78
2022/01/08 09:05:03;;;;;;;5.68;5.15;;;4.50;99.90;;;;;;5089400;28;20201;-77
2022/01/08 09:07:30;;;;;;;5.82;5.32;;;5.30;99.90;;;;;;5088825;28;20577;-79
2022/01/08 09:09:59;;;;;;;5.60;5.20;;;6.20;99.90;;;;;;5086992;28;20206;-77
2022/01/08 09:12:26;;;;;;;5.35;4.95;;;6.90;99.90;;;;;;5087715;28;20225;-79
2022/01/08 09:14:53;;;;;;;6.47;5.88;;;7.20;99.90;;;;;;5089128;28;20194;-77
2022/01/08 09:17:21;;;;;;;6.35;5.75;;;7.90;99.90;;;;;;5086368;28;20272;-79
2022/01/08 09:19:48;;;;;;;8.07;5.72;;;8.50;99.90;;;;;;5089608;28;20246;-78
2022/01/08 09:22:15;;;;;;;6.15;5.55;;;9.40;99.90;;;;;;5089803;28;20700;-76
2022/01/08 09:24:43;;;;;;;7.07;6.47;;;9.10;99.90;;;;;;5089696;28;20481;-78
2022/01/08 09:27:12;;;;;;;6.50;5.90;;;8.80;99.90;;;;;;5091383;28;20222;-78
2022/01/08 09:29:39;;;;;;;6.15;5.65;;;9.90;99.90;;;;;;5086367;28;20214;-77
2022/01/08 09:32:07;;;;;;;6.70;5.57;;;11.40;99.90;;;;;;5081216;28;20225;-78
2022/01/08 09:34:34;;;;;;;6.43;5.65;;;13.10;99.10;;;;;;5090191;28;20259;-78
2022/01/08 09:37:01;;;;;;;7.10;5.95;;;14.60;94.80;;;;;;5085988;28;22039;-77
2022/01/08 09:39:28;;;;;;;6.13;5.50;;;15.00;91.20;;;;;;5084109;28;20201;-77
2022/01/08 09:41:55;;;;;;;5.55;4.90;;;15.40;90.40;;;;;;5085778;28;20202;-78
2022/01/08 09:44:25;;;;;;;5.05;4.55;;;16.00;86.70;;;;;;5087899;28;20702;-76
2022/01/08 09:46:52;;;;;;;6.20;5.38;;;16.30;84.20;;;;;;5088474;28;21013;-79
2022/01/08 09:49:19;;;;;;;5.28;4.78;;;16.50;81.00;;;;;;5081223;28;20697;-77
2022/01/08 09:51:46;;;;;;;5.05;4.55;;;16.40;79.90;;;;;;5087293;28;20212;-78
2022/01/08 09:54:13;;;;;;;4.97;4.53;;;16.40;78.80;;;;;;5081512;28;20247;-78
2022/01/08 09:56:40;;;;;;;6.13;4.30;;;16.70;78.70;;;;;;5087562;28;20225;-77
2022/01/08 09:59:07;;;;;;;4.22;3.88;;;16.70;76.20;;;;;;5084874;28;20259;-79
2022/01/08 10:01:37;;;;;;;4.55;4.13;;;16.50;75.40;;;;;;5090149;28;20652;-81
2022/01/08 10:04:06;;;;;;;4.68;4.28;;;15.40;75.30;;;;;;5086634;28;20434;-77
2022/01/08 10:06:36;;;;;;;4.28;3.97;;;13.80;78.80;;;;;;5084912;28;20562;-74
2022/01/08 10:09:04;;;;;;;4.32;4.03;;;12.50;84.00;;;;;;5087380;28;20225;-78
2022/01/08 10:11:32;;;;;;;4.80;4.40;;;11.10;87.00;;;;;;5088347;28;20225;-76
2022/01/08 10:14:04;;;;;;;5.03;4.13;;;9.90;90.40;;;;;;5088262;28;20221;-77
2022/01/08 10:19:21;;;;;;;3.95;3.65;;;8.10;93.30;;;;;;5076180;28;20726;-76
2022/01/08 10:21:49;;;;;;;4.72;4.32;;;7.90;95.70;;;;;;5088357;28;20201;-78
2022/01/08 10:24:21;;;;;;;4.88;4.45;;;7.90;95.90;;;;;;5076985;28;20221;-77
2022/01/08 10:26:51;;;;;;;5.03;4.10;;;7.90;97.50;;;;;;5081633;28;20201;-79
2022/01/08 10:29:20;;;;;;;5.20;4.18;;;7.90;96.40;;;;;;5093128;28;20249;-79
2022/01/08 10:31:50;;;;;;;4.10;3.80;;;7.90;97.20;;;;;;5085947;28;20202;-79
2022/01/08 10:34:21;;;;;;;4.78;4.38;;;8.10;97.60;;;;;;5084673;28;20226;-77
2022/01/08 10:36:49;;;;;;;4.00;3.65;;;8.30;97.80;;;;;;5095574;28;20194;-79
2022/01/08 10:39:22;;;;;;;4.40;4.10;;;8.50;97.10;;;;;;5080071;28;20241;-74
2022/01/08 10:41:51;;;;;;;5.22;4.80;;;8.60;97.00;;;;;;5082222;28;20198;-77
2022/01/08 10:44:21;;;;;;;4.00;3.60;;;8.60;96.60;;;;;;5079425;28;20224;-77
2022/01/08 10:46:57;;;;;;;5.10;3.67;;;8.60;96.40;;;;;;5080935;28;20632;-77
2022/01/08 10:49:34;;;;;;;4.82;3.92;;;8.60;96.40;;;;;;5084454;28;20224;-75
2022/01/08 10:52:02;;;;;;;4.55;4.15;;;8.50;97.00;;;;;;5082260;28;20799;-75
2022/01/08 10:54:30;;;;;;;4.32;4.03;;;8.50;96.20;;;;;;5079828;28;20210;-75
2022/01/08 10:57:00;;;;;;;4.28;3.88;;;8.40;96.80;;;;;;5080428;28;21061;-75
2022/01/08 10:59:29;;;;;;;4.25;3.95;;;8.60;97.30;;;;;;5078590;28;20224;-75
2022/01/08 11:01:58;;;;;;;4.60;4.20;;;8.90;97.20;;;;;;5084699;28;20304;-75
2022/01/08 11:04:39;;;;;;;4.55;4.15;;;9.10;96.50;;;;;;5077244;28;20242;-75
2022/01/08 11:07:08;;;;;;;4.65;3.80;;;9.20;96.20;;;;;;5080374;28;20224;-77
2022/01/08 11:09:36;;;;;;;4.47;4.07;;;9.10;96.70;;;;;;5083059;28;20221;-75
2022/01/08 11:12:05;;;;;;;4.38;3.97;;;9.00;97.00;;;;;;5080032;28;20198;-74
2022/01/08 11:17:29;;;;;;;4.30;3.90;;;8.80;96.40;;;;;;5041252;28;20258;-75
2022/01/08 11:19:59;;;;;;;4.30;4.00;;;8.70;97.30;;;;;;5078242;28;20280;-75
2022/01/08 11:22:30;;;;;;;4.90;3.85;;;8.80;97.30;;;;;;5085662;28;20190;-76
2022/01/08 11:25:00;;;;;;;3.80;3.50;;;9.00;97.00;;;;;;5083092;28;20644;-77
2022/01/08 11:27:34;;;;;;;3.88;3.58;;;9.00;96.90;;;;;;5081614;28;20229;-75
2022/01/08 11:30:09;;;;;;;4.43;3.85;;;9.00;96.30;;;;;;5086392;28;20206;-77
2022/01/08 11:32:37;;;;;;;4.10;3.65;;;9.10;96.50;;;;;;5086980;28;20216;-78
2022/01/08 11:35:08;;;;;;;4.13;3.83;;;8.90;96.20;;;;;;5087860;28;20202;-76
2022/01/08 11:37:35;;;;;;;4.38;3.90;;;8.90;97.00;;;;;;5087740;28;20236;-77
2022/01/08 11:40:07;;;;;;;4.45;4.05;;;8.70;97.10;;;;;;5085249;28;20208;-75
2022/01/08 11:42:36;;;;;;;5.60;3.85;;;8.50;97.10;;;;;;5085745;28;20200;-77
2022/01/08 11:45:06;;;;;;;4.18;3.70;;;8.60;97.80;;;;;;5086623;28;20863;-77
2022/01/08 11:47:33;;;;;;;4.68;4.20;;;8.70;97.90;;;;;;5082965;28;20737;-78
2022/01/08 11:50:02;;;;;;;4.10;3.80;;;8.80;97.50;;;;;;5082297;28;20217;-74
2022/01/08 11:52:31;;;;;;;4.45;4.05;;;8.70;97.60;;;;;;5086770;28;20254;-75
2022/01/08 11:54:58;;;;;;;4.18;3.83;;;8.80;97.20;;;;;;5084650;28;20190;-77
2022/01/08 11:57:27;;;;;;;3.90;3.60;;;9.10;97.20;;;;;;5104950;22;20245;-79
2022/01/08 11:59:57;;;;;;;3.95;3.55;;;9.30;97.00;;;;;;5071322;28;20202;-78
2022/01/08 12:02:39;;;;;;;4.32;3.92;;;8.90;96.10;;;;;;5070255;28;20201;-80
2022/01/08 12:05:07;;;;;;;4.10;3.80;;;8.40;96.20;;;;;;5070173;28;20660;-80
2022/01/08 12:07:39;;;;;;;4.40;4.00;;;8.30;97.10;;;;;;5070289;28;20573;-80
2022/01/08 12:10:21;;;;;;;5.30;3.75;;;8.10;97.20;;;;;;5069622;28;20386;-79
2022/01/08 12:12:57;;;;;;;4.35;4.05;;;8.00;96.90;;;;;;5069239;28;20234;-78
2022/01/08 12:15:47;;;;;;;3.90;3.58;;;7.90;97.80;;;;;;5071877;28;20591;-79
2022/01/08 12:18:16;;;;;;;4.55;4.15;;;7.60;97.00;;;;;;5071679;28;20229;-81
2022/01/08 12:20:48;;;;;;;5.13;4.68;;;7.40;97.70;;;;;;5069229;28;20275;-81
2022/01/08 12:23:35;;;;;;;4.47;4.07;;;7.30;97.90;;;;;;5066957;28;20859;-80
2022/01/08 12:26:05;;;;;;;6.20;4.18;;;7.40;97.60;;;;;;5071187;28;20190;-79
2022/01/08 12:28:53;;;;;;;4.15;3.83;;;7.30;98.20;;;;;;5070024;28;20225;-80
2022/01/08 12:31:28;;;;;;;3.88;3.58;;;7.20;98.10;;;;;;5067048;28;20245;-80
2022/01/08 12:34:49;;;;;;;4.53;4.13;;;7.40;98.50;;;;;;5071154;28;20213;-80
2022/01/08 12:37:17;;;;;;;4.80;4.35;;;7.60;98.10;;;;;;5060090;28;20655;-81
2022/01/08 12:39:53;;;;;;;5.88;4.25;;;7.80;98.10;;;;;;5067333;28;20220;-79
2022/01/08 12:42:45;;;;;;;5.22;4.25;;;7.60;97.80;;;;;;5070200;28;20252;-80
2022/01/08 12:45:19;;;;;;;4.47;4.07;;;7.70;98.60;;;;;;5069177;28;20276;-79
2022/01/08 12:47:50;;;;;;;4.65;4.25;;;7.80;98.70;;;;;;5070086;28;20263;-78
2022/01/08 12:50:20;;;;;;;4.18;3.88;;;8.10;98.30;;;;;;5065426;28;20218;-80
2022/01/08 12:53:21;;;;;;;4.97;4.35;;;8.10;98.30;;;;;;5057260;28;20721;-81
2022/01/08 12:56:12;;;;;;;4.53;4.22;;;8.20;97.70;;;;;;5060996;28;20229;-79
2022/01/08 12:58:46;;;;;;;4.43;4.03;;;8.10;98.50;;;;;;5053589;28;20625;-78
2022/01/08 13:01:14;;;;;;;5.55;5.05;;;8.00;99.00;;;;;;5065473;28;20221;-81
2022/01/08 13:03:43;;;;;;;5.18;4.68;;;8.20;99.00;;;;;;5064098;28;20206;-80
2022/01/08 13:06:32;;;;;;;5.88;4.90;;;8.10;98.80;;;;;;5066560;28;20210;-79
2022/01/08 13:09:01;;;;;;;6.38;4.53;;;8.00;98.50;;;;;;5056713;28;20214;-78
2022/01/08 13:11:32;;;;;;;5.00;4.50;;;7.90;98.40;;;;;;5062163;28;20236;-80
2022/01/08 13:14:00;;;;;;;4.07;3.67;;;7.80;98.60;;;;;;5061279;28;20201;-80
2022/01/08 13:16:30;;;;;;;4.40;4.00;;;7.80;98.60;;;;;;5063292;28;20226;-80
2022/01/08 13:18:58;;;;;;;4.40;3.95;;;7.60;98.70;;;;;;5057040;28;20206;-79